Fire Weather Observation
Issued by NWS Grand Junction, CO

Home | Current Version | Previous Version | Text Only | Print | Product List | Glossary Off
Versions: 1 2 3 4 5 6 7 8 9 10 11 12 13 14 15 16 17 18 19 20 21 22 23 24 25 26 27 28 29 30 31 32 33 34 35 36 37 38 39 40 41 42 43 44 45 46 47 48 49 50

000
SHUS65 KGJT 212021
FWOGJT

DAILY FIRE WEATHER OBSERVATION
NATIONAL WEATHER SERVICE GRAND JUNCTION CO
221 PM MDT FRI JUL 21 2017

STATE OF THE WEATHER (W)               1
DRY BULB TEMPERATURE                   90   DEGREES FAHRENHEIT
RELATIVE HUMIDITY (RH)                 26   PERCENT
LIGHTNING ACTIVITY LEVEL
  (LAL - MIDNIGHT TO 2 PM)             5
WIND DIRECTION                         270  DEGREES (C IF CALM)
WIND SPEED                             6    MPH
MAX TEMP (2 PM - 2 PM)                 96   DEGREES FAHRENHEIT
MIN TEMP (2 PM - 2 PM)                 70   DEGREES FAHRENHEIT
MAX RH (2 PM - 2 PM)                   61   PERCENT
MIN RH (2 PM - 2 PM)                   20   PERCENT
PCPN DURATION                          0.3  HOURS
PCPN AMT (2 PM - 2 PM)                 T    INCHES
LAL (2 PM - 2 PM)                      5

$$

METAR KGJT 211953Z 26005KT 10SM CLR 32/10 A3008 RMK AO2 LTG DSNT
      N SLP106 T03220100


USA.gov is the U.S. government's official web portal to all federal, state and local government web resources and services.